createdAt,value
2018-05-12T00:00:46.250Z,0.00
2018-05-12T00:01:46.276Z,0.00
2018-05-12T00:02:46.304Z,0.00
2018-05-12T00:03:46.331Z,0.00
2018-05-12T00:04:46.376Z,0.00
2018-05-12T00:05:46.390Z,0.00
2018-05-12T00:06:46.417Z,0.00
2018-05-12T00:07:46.440Z,0.00
2018-05-12T00:08:46.467Z,0.00
2018-05-12T00:09:46.498Z,0.00
2018-05-12T00:10:46.575Z,0.00
2018-05-12T00:11:46.553Z,0.00
2018-05-12T00:12:46.578Z,0.00
2018-05-12T00:13:46.605Z,0.00
2018-05-12T00:14:46.665Z,0.00
2018-05-12T00:15:46.659Z,0.00
2018-05-12T00:16:46.686Z,0.00
2018-05-12T00:17:46.713Z,0.00
2018-05-12T00:18:46.742Z,0.00
2018-05-12T00:19:46.768Z,0.00
2018-05-12T00:20:46.795Z,0.00
2018-05-12T00:21:46.823Z,0.00
2018-05-12T00:22:46.851Z,0.00
2018-05-12T00:23:46.876Z,0.00
2018-05-12T00:24:46.904Z,0.00
2018-05-12T00:25:46.932Z,0.00
2018-05-12T00:26:46.960Z,0.00
2018-05-12T00:27:46.986Z,0.00
2018-05-12T00:28:47.013Z,0.00
2018-05-12T00:29:47.041Z,0.00
2018-05-12T00:30:47.070Z,0.00
2018-05-12T00:31:47.095Z,0.00
2018-05-12T00:32:47.123Z,0.00
2018-05-12T00:33:47.168Z,0.00
2018-05-12T00:34:47.178Z,0.00
2018-05-12T00:35:47.203Z,0.00
2018-05-12T00:36:47.232Z,0.00
2018-05-12T00:37:47.259Z,0.00
2018-05-12T00:38:47.287Z,0.00
2018-05-12T00:39:47.314Z,0.00
2018-05-12T00:40:47.342Z,0.00
2018-05-12T00:41:47.368Z,0.00
2018-05-12T00:42:47.396Z,0.00
2018-05-12T00:43:47.438Z,0.00
2018-05-12T00:44:47.450Z,0.00
2018-05-12T00:45:47.517Z,0.00
2018-05-12T00:46:47.505Z,4.00
2018-05-12T00:47:47.531Z,4.00
2018-05-12T00:48:47.559Z,4.00
2018-05-12T00:49:47.586Z,4.00
2018-05-12T00:50:47.615Z,4.00
2018-05-12T00:51:47.641Z,4.00
2018-05-12T00:52:47.668Z,0.00
2018-05-12T00:53:47.695Z,0.00
2018-05-12T00:54:47.723Z,0.00
2018-05-12T00:55:47.751Z,4.00
2018-05-12T00:56:47.778Z,4.00
2018-05-12T00:57:47.804Z,4.00
2018-05-12T00:58:47.832Z,4.00
2018-05-12T00:59:47.859Z,4.00
2018-05-12T01:00:47.889Z,4.00
2018-05-12T01:01:47.913Z,4.00
2018-05-12T01:02:47.986Z,8.00
2018-05-12T01:03:47.968Z,4.00
2018-05-12T01:04:47.995Z,4.00
2018-05-12T01:05:48.024Z,8.00
2018-05-12T01:06:48.050Z,8.00
2018-05-12T01:07:48.082Z,4.00
2018-05-12T01:08:48.104Z,8.00
2018-05-12T01:09:48.131Z,8.00
2018-05-12T01:10:48.159Z,8.00
2018-05-12T01:11:48.186Z,8.00
2018-05-12T01:12:48.215Z,8.00
2018-05-12T01:13:48.240Z,12.00
2018-05-12T01:14:48.269Z,12.00
2018-05-12T01:15:48.294Z,12.00
2018-05-12T01:16:48.323Z,12.00
2018-05-12T01:17:48.350Z,12.00
2018-05-12T01:18:48.377Z,16.00
2018-05-12T01:19:48.403Z,16.00
2018-05-12T01:20:48.431Z,16.00
2018-05-12T01:21:48.498Z,16.00
2018-05-12T01:22:48.486Z,16.00
2018-05-12T01:23:48.512Z,20.00
2018-05-12T01:24:48.547Z,20.00
2018-05-12T01:25:48.567Z,20.00
2018-05-12T01:26:48.595Z,24.00
2018-05-12T01:27:48.621Z,24.00
2018-05-12T01:28:48.654Z,28.00
2018-05-12T01:29:48.714Z,24.00
2018-05-12T01:30:48.708Z,28.00
2018-05-12T01:31:48.730Z,28.00
2018-05-12T01:32:48.788Z,28.00
2018-05-12T01:33:48.785Z,28.00
2018-05-12T01:34:48.813Z,32.00
2018-05-12T01:35:48.839Z,32.00
2018-05-12T01:36:48.869Z,32.00
2018-05-12T01:37:48.895Z,36.00
2018-05-12T01:38:48.921Z,36.00
2018-05-12T01:39:48.949Z,36.00
2018-05-12T01:40:48.975Z,40.00
2018-05-12T01:41:49.040Z,40.00
2018-05-12T01:42:49.031Z,44.00
2018-05-12T01:43:49.057Z,48.00
2018-05-12T01:44:49.084Z,48.00
2018-05-12T01:45:49.111Z,48.00
2018-05-12T01:46:49.140Z,52.00
2018-05-12T01:47:49.208Z,56.00
2018-05-12T01:48:49.193Z,60.00
2018-05-12T01:49:49.222Z,64.00
2018-05-12T01:50:49.252Z,68.00
2018-05-12T01:51:49.275Z,68.00
2018-05-12T01:52:49.303Z,76.00
2018-05-12T01:53:49.330Z,80.00
2018-05-12T01:54:49.384Z,84.00
2018-05-12T01:55:49.387Z,92.00
2018-05-12T01:56:49.414Z,96.00
2018-05-12T01:57:49.438Z,104.00
2018-05-12T01:58:49.466Z,112.00
2018-05-12T01:59:49.492Z,120.00
2018-05-12T02:00:49.520Z,128.00
2018-05-12T02:01:49.547Z,136.00
2018-05-12T02:02:49.575Z,140.00
2018-05-12T02:03:49.601Z,148.00
2018-05-12T02:04:49.651Z,148.00
2018-05-12T02:05:49.656Z,148.00
2018-05-12T02:06:49.688Z,140.00
2018-05-12T02:07:49.710Z,128.00
2018-05-12T02:08:49.737Z,124.00
2018-05-12T02:09:49.765Z,136.00
2018-05-12T02:10:49.792Z,148.00
2018-05-12T02:11:49.819Z,160.00
2018-05-12T02:12:49.848Z,184.00
2018-05-12T02:13:49.874Z,200.00
2018-05-12T02:14:49.903Z,212.00
2018-05-12T02:15:49.928Z,224.00
2018-05-12T02:16:49.955Z,228.00
2018-05-12T02:17:49.988Z,236.00
2018-05-12T02:18:50.010Z,252.00
2018-05-12T02:19:50.038Z,272.00
2018-05-12T02:20:50.068Z,292.00
2018-05-12T02:21:50.091Z,312.00
2018-05-12T02:22:50.119Z,324.00
2018-05-12T02:23:50.145Z,340.00
2018-05-12T02:24:50.175Z,372.00
2018-05-12T02:25:50.230Z,396.00
2018-05-12T02:26:50.230Z,404.00
2018-05-12T02:27:50.254Z,424.00
2018-05-12T02:28:50.282Z,428.00
2018-05-12T02:29:50.314Z,400.00
2018-05-12T02:30:50.346Z,348.00
2018-05-12T02:31:50.364Z,272.00
2018-05-12T02:32:50.392Z,204.00
2018-05-12T02:33:50.419Z,172.00
2018-05-12T02:34:50.446Z,168.00
2018-05-12T02:35:50.472Z,168.00
2018-05-12T02:36:50.500Z,176.00
2018-05-12T02:37:50.528Z,180.00
2018-05-12T02:38:50.556Z,176.00
2018-05-12T02:39:50.583Z,180.00
2018-05-12T02:40:50.610Z,184.00
2018-05-12T02:41:50.637Z,192.00
2018-05-12T02:42:50.664Z,200.00
2018-05-12T02:43:50.693Z,200.00
2018-05-12T02:44:50.719Z,208.00
2018-05-12T02:45:50.747Z,216.00
2018-05-12T02:46:50.775Z,228.00
2018-05-12T02:47:50.805Z,256.00
2018-05-12T02:48:50.827Z,288.00
2018-05-12T02:49:50.855Z,400.00
2018-05-12T02:50:50.882Z,504.00
2018-05-12T02:51:50.912Z,540.00
2018-05-12T02:52:50.939Z,520.00
2018-05-12T02:53:50.965Z,480.00
2018-05-12T02:54:50.992Z,500.00
2018-05-12T02:55:51.018Z,520.00
2018-05-12T02:56:51.047Z,616.00
2018-05-12T02:57:51.073Z,728.00
2018-05-12T02:58:51.101Z,904.00
2018-05-12T02:59:51.126Z,1012.00
2018-05-12T03:00:51.154Z,1032.00
2018-05-12T03:01:51.182Z,1012.00
2018-05-12T03:02:51.210Z,852.00
2018-05-12T03:03:51.238Z,772.00
2018-05-12T03:04:51.263Z,768.00
2018-05-12T03:05:51.292Z,808.00
2018-05-12T03:06:51.319Z,876.00
2018-05-12T03:07:51.345Z,952.00
2018-05-12T03:08:51.386Z,916.00
2018-05-12T03:09:51.401Z,856.00
2018-05-12T03:10:51.428Z,828.00
2018-05-12T03:11:51.454Z,792.00
2018-05-12T03:12:51.483Z,768.00
2018-05-12T03:13:51.514Z,812.00
2018-05-12T03:14:51.538Z,844.00
2018-05-12T03:15:51.564Z,872.00
2018-05-12T03:16:51.591Z,812.00
2018-05-12T03:17:51.619Z,752.00
2018-05-12T03:18:51.646Z,644.00
2018-05-12T03:19:51.689Z,1092.00
2018-05-12T03:20:51.708Z,1136.00
2018-05-12T03:21:51.728Z,860.00
2018-05-12T03:22:51.755Z,704.00
2018-05-12T03:23:51.782Z,632.00
2018-05-12T03:24:51.810Z,636.00
2018-05-12T03:25:51.837Z,648.00
2018-05-12T03:26:51.865Z,644.00
2018-05-12T03:27:51.891Z,640.00
2018-05-12T03:28:51.920Z,636.00
2018-05-12T03:29:51.947Z,628.00
2018-05-12T03:30:51.977Z,620.00
2018-05-12T03:31:52.002Z,616.00
2018-05-12T03:32:52.029Z,624.00
2018-05-12T03:33:52.056Z,664.00
2018-05-12T03:34:52.100Z,728.00
2018-05-12T03:35:52.115Z,716.00
2018-05-12T03:36:52.138Z,692.00
2018-05-12T03:37:52.165Z,692.00
2018-05-12T03:38:52.195Z,708.00
2018-05-12T03:39:52.220Z,764.00
2018-05-12T03:40:52.248Z,868.00
2018-05-12T03:41:52.276Z,884.00
2018-05-12T03:42:52.302Z,884.00
2018-05-12T03:43:52.330Z,1060.00
2018-05-12T03:44:52.357Z,1124.00
2018-05-12T03:45:52.384Z,1112.00
2018-05-12T03:46:52.415Z,1596.00
2018-05-12T03:47:52.439Z,2068.00
2018-05-12T03:48:52.466Z,1780.00
2018-05-12T03:49:52.494Z,1492.00
2018-05-12T03:50:52.522Z,1840.00
2018-05-12T03:51:52.552Z,1900.00
2018-05-12T03:52:52.577Z,1668.00
2018-05-12T03:53:52.605Z,1724.00
2018-05-12T03:54:52.633Z,1736.00
2018-05-12T03:55:52.659Z,2268.00
2018-05-12T03:56:52.687Z,2908.00
2018-05-12T03:57:52.713Z,2804.00
2018-05-12T03:58:52.742Z,3076.00
2018-05-12T03:59:52.774Z,4120.00
2018-05-12T04:00:52.797Z,4976.00
2018-05-12T04:01:52.844Z,5252.00
2018-05-12T04:02:52.885Z,5184.00
2018-05-12T04:03:52.880Z,5024.00
2018-05-12T04:04:52.907Z,4228.00
2018-05-12T04:05:52.954Z,2844.00
2018-05-12T04:06:52.962Z,2136.00
2018-05-12T04:07:52.989Z,2272.00
2018-05-12T04:08:53.017Z,2136.00
2018-05-12T04:09:53.045Z,2280.00
2018-05-12T04:10:53.074Z,2404.00
2018-05-12T04:11:53.101Z,2908.00
2018-05-12T04:12:53.127Z,3588.00
2018-05-12T04:13:53.156Z,4484.00
2018-05-12T04:14:53.185Z,4384.00
2018-05-12T04:15:53.214Z,2868.00
2018-05-12T04:16:53.238Z,1668.00
2018-05-12T04:17:53.277Z,1104.00
2018-05-12T04:18:53.294Z,844.00
2018-05-12T04:19:53.321Z,748.00
2018-05-12T04:20:53.397Z,692.00
2018-05-12T04:21:53.377Z,780.00
2018-05-12T04:22:53.406Z,1064.00
2018-05-12T04:23:53.433Z,1280.00
2018-05-12T04:24:53.460Z,1204.00
2018-05-12T04:25:53.489Z,1140.00
2018-05-12T04:26:53.545Z,2304.00
2018-05-12T04:27:53.543Z,3708.00
2018-05-12T04:28:53.588Z,3112.00
2018-05-12T04:29:53.599Z,1836.00
2018-05-12T04:30:53.634Z,1764.00
2018-05-12T04:31:53.654Z,1608.00
2018-05-12T04:32:53.682Z,2004.00
2018-05-12T04:33:53.711Z,2344.00
2018-05-12T04:34:53.738Z,1208.00
2018-05-12T04:35:53.799Z,708.00
2018-05-12T04:36:53.793Z,628.00
2018-05-12T04:37:53.821Z,648.00
2018-05-12T04:38:53.849Z,628.00
2018-05-12T04:39:53.890Z,688.00
2018-05-12T04:40:53.907Z,904.00
2018-05-12T04:41:53.933Z,992.00
2018-05-12T04:42:53.960Z,828.00
2018-05-12T04:43:53.988Z,912.00
2018-05-12T04:44:54.051Z,1600.00
2018-05-12T04:45:54.045Z,1404.00
2018-05-12T04:46:54.072Z,1208.00
2018-05-12T04:47:54.100Z,1644.00
2018-05-12T04:48:54.126Z,1700.00
2018-05-12T04:49:54.155Z,1300.00
2018-05-12T04:50:54.183Z,920.00
2018-05-12T04:51:54.210Z,832.00
2018-05-12T04:52:54.239Z,812.00
2018-05-12T04:53:54.266Z,792.00
2018-05-12T04:54:54.322Z,792.00
2018-05-12T04:55:54.320Z,884.00
2018-05-12T04:56:54.349Z,1024.00
2018-05-12T04:57:54.392Z,1368.00
2018-05-12T04:58:54.406Z,2640.00
2018-05-12T04:59:54.432Z,4976.00
2018-05-12T05:00:54.463Z,5984.00
2018-05-12T05:01:54.495Z,5968.00
2018-05-12T05:02:54.517Z,5624.00
2018-05-12T05:03:54.553Z,5516.00
2018-05-12T05:04:54.572Z,4516.00
2018-05-12T05:05:54.601Z,4324.00
2018-05-12T05:06:54.628Z,4776.00
2018-05-12T05:07:54.656Z,4220.00
2018-05-12T05:08:54.684Z,3996.00
2018-05-12T05:09:54.712Z,4232.00
2018-05-12T05:10:54.746Z,3664.00
2018-05-12T05:11:54.767Z,3380.00
2018-05-12T05:12:54.795Z,3380.00
2018-05-12T05:13:54.823Z,2668.00
2018-05-12T05:14:54.851Z,2148.00
2018-05-12T05:15:54.879Z,1864.00
2018-05-12T05:16:54.908Z,1636.00
2018-05-12T05:17:54.936Z,1620.00
2018-05-12T05:18:54.995Z,1724.00
2018-05-12T05:19:54.991Z,1716.00
2018-05-12T05:20:55.020Z,1844.00
2018-05-12T05:21:55.047Z,2268.00
2018-05-12T05:22:55.080Z,2356.00
2018-05-12T05:23:55.109Z,2144.00
2018-05-12T05:24:55.131Z,1692.00
2018-05-12T05:25:55.187Z,1364.00
2018-05-12T05:26:55.187Z,1276.00
2018-05-12T05:27:55.214Z,1160.00
2018-05-12T05:28:55.243Z,1028.00
2018-05-12T05:29:55.271Z,916.00
2018-05-12T05:30:55.369Z,868.00
2018-05-12T05:31:55.326Z,876.00
2018-05-12T05:32:55.354Z,880.00
2018-05-12T05:33:55.383Z,904.00
2018-05-12T05:34:55.411Z,888.00
2018-05-12T05:35:55.438Z,880.00
2018-05-12T05:36:55.466Z,848.00
2018-05-12T05:37:55.499Z,824.00
2018-05-12T05:38:55.539Z,804.00
2018-05-12T05:39:55.554Z,776.00
2018-05-12T05:40:55.578Z,752.00
2018-05-12T05:41:55.606Z,736.00
2018-05-12T05:42:55.636Z,732.00
2018-05-12T05:43:55.662Z,724.00
2018-05-12T05:44:55.689Z,712.00
2018-05-12T05:45:55.720Z,708.00
2018-05-12T05:46:55.748Z,708.00
2018-05-12T05:47:55.777Z,712.00
2018-05-12T05:48:55.803Z,720.00
2018-05-12T05:49:55.829Z,728.00
2018-05-12T05:50:55.858Z,752.00
2018-05-12T05:51:55.888Z,772.00
2018-05-12T05:52:55.914Z,796.00
2018-05-12T05:53:55.941Z,824.00
2018-05-12T05:54:55.970Z,844.00
2018-05-12T05:55:56.002Z,896.00
2018-05-12T05:56:56.025Z,972.00
2018-05-12T05:57:56.054Z,1012.00
2018-05-12T05:58:56.081Z,1020.00
2018-05-12T05:59:56.109Z,1028.00
2018-05-12T06:00:56.137Z,1032.00
2018-05-12T06:01:56.164Z,1024.00
2018-05-12T06:02:56.192Z,1016.00
2018-05-12T06:03:56.221Z,1012.00
2018-05-12T06:04:56.254Z,1008.00
2018-05-12T06:05:56.276Z,1000.00
2018-05-12T06:06:56.321Z,992.00
2018-05-12T06:07:56.356Z,980.00
2018-05-12T06:08:56.360Z,976.00
2018-05-12T06:09:56.393Z,968.00
2018-05-12T06:10:56.415Z,956.00
2018-05-12T06:11:56.443Z,944.00
2018-05-12T06:12:56.471Z,924.00
2018-05-12T06:13:56.527Z,908.00
2018-05-12T06:14:56.527Z,896.00
2018-05-12T06:15:56.580Z,872.00
2018-05-12T06:16:56.582Z,860.00
2018-05-12T06:17:56.612Z,848.00
2018-05-12T06:18:56.638Z,840.00
2018-05-12T06:19:56.666Z,832.00
2018-05-12T06:20:56.694Z,820.00
2018-05-12T06:21:56.723Z,812.00
2018-05-12T06:22:56.750Z,800.00
2018-05-12T06:23:56.777Z,792.00
2018-05-12T06:24:56.805Z,784.00
2018-05-12T06:25:56.834Z,772.00
2018-05-12T06:26:56.862Z,764.00
2018-05-12T06:27:56.904Z,740.00
2018-05-12T06:28:56.916Z,740.00
2018-05-12T06:29:57.039Z,724.00
2018-05-12T06:30:56.975Z,720.00
2018-05-12T06:31:57.001Z,716.00
2018-05-12T06:32:57.029Z,704.00
2018-05-12T06:33:57.059Z,700.00
2018-05-12T06:34:57.088Z,692.00
2018-05-12T06:35:57.114Z,684.00
2018-05-12T06:36:57.140Z,672.00
2018-05-12T06:37:57.176Z,668.00
2018-05-12T06:38:57.198Z,660.00
2018-05-12T06:39:57.231Z,652.00
2018-05-12T06:40:57.253Z,648.00
2018-05-12T06:41:57.279Z,640.00
2018-05-12T06:42:57.308Z,632.00
2018-05-12T06:43:57.334Z,628.00
2018-05-12T06:44:57.363Z,624.00
2018-05-12T06:45:57.391Z,616.00
2018-05-12T06:46:57.422Z,612.00
2018-05-12T06:47:57.447Z,608.00
2018-05-12T06:48:57.475Z,604.00
2018-05-12T06:49:57.504Z,600.00
2018-05-12T06:50:57.531Z,600.00
2018-05-12T06:51:57.558Z,596.00
2018-05-12T06:52:57.586Z,592.00
2018-05-12T06:53:57.643Z,588.00
2018-05-12T06:54:57.646Z,576.00
2018-05-12T06:55:57.681Z,548.00
2018-05-12T06:56:57.699Z,560.00
2018-05-12T06:57:57.725Z,548.00
2018-05-12T06:58:57.753Z,552.00
2018-05-12T06:59:57.781Z,544.00
2018-05-12T07:00:57.810Z,528.00
2018-05-12T07:01:57.837Z,544.00
2018-05-12T07:02:57.865Z,576.00
2018-05-12T07:03:57.893Z,572.00
2018-05-12T07:04:57.922Z,572.00
2018-05-12T07:05:57.948Z,564.00
2018-05-12T07:06:57.977Z,556.00
2018-05-12T07:07:58.005Z,556.00
2018-05-12T07:08:58.032Z,544.00
2018-05-12T07:09:58.060Z,536.00
2018-05-12T07:10:58.088Z,536.00
2018-05-12T07:11:58.115Z,548.00
2018-05-12T07:12:58.144Z,552.00
2018-05-12T07:13:58.172Z,548.00
2018-05-12T07:14:58.200Z,552.00
2018-05-12T07:15:58.237Z,556.00
2018-05-12T07:16:58.255Z,552.00
2018-05-12T07:17:58.283Z,548.00
2018-05-12T07:18:58.311Z,540.00
2018-05-12T07:19:58.340Z,536.00
2018-05-12T07:20:58.367Z,536.00
2018-05-12T07:21:58.395Z,532.00
2018-05-12T07:22:58.423Z,536.00
2018-05-12T07:23:58.450Z,532.00
2018-05-12T07:24:58.479Z,528.00
2018-05-12T07:25:58.506Z,528.00
2018-05-12T07:26:58.538Z,528.00
2018-05-12T07:27:58.561Z,528.00
2018-05-12T07:28:58.591Z,524.00
2018-05-12T07:29:58.621Z,520.00
2018-05-12T07:30:58.653Z,516.00
2018-05-12T07:31:58.690Z,512.00
2018-05-12T07:32:58.708Z,508.00
2018-05-12T07:33:58.729Z,508.00
2018-05-12T07:34:58.757Z,504.00
2018-05-12T07:35:58.784Z,500.00
2018-05-12T07:36:58.813Z,500.00
2018-05-12T07:37:58.841Z,500.00
2018-05-12T07:38:58.936Z,496.00
2018-05-12T07:39:58.897Z,496.00
2018-05-12T07:40:58.924Z,496.00
2018-05-12T07:41:58.952Z,492.00
2018-05-12T07:42:58.980Z,492.00
2018-05-12T07:43:59.008Z,492.00
2018-05-12T07:44:59.036Z,492.00
2018-05-12T07:45:59.066Z,488.00
2018-05-12T07:46:59.092Z,488.00
2018-05-12T07:47:59.119Z,488.00
2018-05-12T07:48:59.147Z,484.00
2018-05-12T07:49:59.175Z,480.00
2018-05-12T07:50:59.204Z,476.00
2018-05-12T07:51:59.262Z,476.00
2018-05-12T07:52:59.258Z,468.00
2018-05-12T07:53:59.307Z,468.00
2018-05-12T07:54:59.315Z,468.00
2018-05-12T07:55:59.342Z,464.00
2018-05-12T07:56:59.433Z,468.00
2018-05-12T07:57:59.398Z,464.00
2018-05-12T07:58:59.427Z,464.00
2018-05-12T07:59:59.453Z,464.00
2018-05-12T08:00:59.482Z,464.00
2018-05-12T08:01:59.509Z,464.00
2018-05-12T08:02:59.537Z,464.00
2018-05-12T08:03:59.566Z,460.00
2018-05-12T08:04:59.592Z,460.00
2018-05-12T08:05:59.620Z,460.00
2018-05-12T08:06:59.677Z,452.00
2018-05-12T08:07:59.676Z,452.00
2018-05-12T08:08:59.704Z,448.00
2018-05-12T08:09:59.733Z,448.00
2018-05-12T08:10:59.763Z,444.00
2018-05-12T08:11:59.788Z,440.00
2018-05-12T08:12:59.817Z,440.00
2018-05-12T08:13:59.872Z,448.00
2018-05-12T08:14:59.872Z,444.00
2018-05-12T08:15:59.900Z,448.00
2018-05-12T08:16:59.948Z,448.00
2018-05-12T08:17:59.956Z,444.00
2018-05-12T08:18:59.983Z,444.00
2018-05-12T08:20:00.011Z,444.00
2018-05-12T08:21:00.039Z,444.00
2018-05-12T08:22:00.069Z,444.00
2018-05-12T08:23:00.095Z,440.00
2018-05-12T08:24:00.123Z,440.00
2018-05-12T08:25:00.151Z,444.00
2018-05-12T08:26:00.262Z,444.00
2018-05-12T08:27:00.206Z,440.00
2018-05-12T08:28:00.234Z,440.00
2018-05-12T08:29:00.262Z,440.00
2018-05-12T08:30:00.373Z,436.00
2018-05-12T08:31:00.318Z,436.00
2018-05-12T08:32:00.345Z,432.00
2018-05-12T08:33:00.395Z,436.00
2018-05-12T08:34:00.412Z,432.00
2018-05-12T08:35:00.429Z,432.00
2018-05-12T08:36:00.458Z,432.00
2018-05-12T08:37:00.486Z,428.00
2018-05-12T08:38:00.512Z,428.00
2018-05-12T08:39:00.542Z,428.00
2018-05-12T08:40:00.571Z,424.00
2018-05-12T08:41:00.597Z,424.00
2018-05-12T08:42:00.625Z,424.00
2018-05-12T08:43:00.652Z,420.00
2018-05-12T08:44:00.679Z,424.00
2018-05-12T08:45:00.707Z,420.00
2018-05-12T08:46:00.739Z,420.00
2018-05-12T08:47:00.764Z,416.00
2018-05-12T08:48:00.791Z,416.00
2018-05-12T08:49:00.820Z,416.00
2018-05-12T08:50:00.846Z,420.00
2018-05-12T08:51:00.903Z,420.00
2018-05-12T08:52:00.903Z,416.00
2018-05-12T08:53:00.935Z,416.00
2018-05-12T08:54:00.959Z,416.00
2018-05-12T08:55:00.987Z,416.00
2018-05-12T08:56:01.013Z,420.00
2018-05-12T08:57:01.042Z,416.00
2018-05-12T08:58:01.070Z,416.00
2018-05-12T08:59:01.098Z,412.00
2018-05-12T09:00:01.126Z,408.00
2018-05-12T09:01:01.154Z,408.00
2018-05-12T09:02:01.182Z,408.00
2018-05-12T09:03:01.244Z,408.00
2018-05-12T09:04:01.236Z,408.00
2018-05-12T09:05:01.264Z,412.00
2018-05-12T09:06:01.293Z,412.00
2018-05-12T09:07:01.323Z,412.00
2018-05-12T09:08:01.348Z,412.00
2018-05-12T09:09:01.376Z,416.00
2018-05-12T09:10:01.404Z,416.00
2018-05-12T09:11:01.432Z,424.00
2018-05-12T09:12:01.459Z,432.00
2018-05-12T09:13:01.487Z,440.00
2018-05-12T09:14:01.521Z,448.00
2018-05-12T09:15:01.546Z,456.00
2018-05-12T09:16:01.571Z,464.00
2018-05-12T09:17:01.604Z,468.00
2018-05-12T09:18:01.634Z,472.00
2018-05-12T09:19:01.686Z,468.00
2018-05-12T09:20:01.722Z,472.00
2018-05-12T09:21:01.710Z,468.00
2018-05-12T09:22:01.739Z,464.00
2018-05-12T09:23:01.766Z,464.00
2018-05-12T09:24:01.793Z,456.00
2018-05-12T09:25:01.821Z,452.00
2018-05-12T09:26:01.849Z,452.00
2018-05-12T09:27:01.878Z,452.00
2018-05-12T09:28:01.905Z,448.00
2018-05-12T09:29:01.934Z,452.00
2018-05-12T09:30:01.962Z,456.00
2018-05-12T09:31:01.990Z,456.00
2018-05-12T09:32:02.016Z,460.00
2018-05-12T09:33:02.044Z,468.00
2018-05-12T09:34:02.072Z,476.00
2018-05-12T09:35:02.104Z,480.00
2018-05-12T09:36:02.127Z,488.00
2018-05-12T09:37:02.155Z,492.00
2018-05-12T09:38:02.184Z,500.00
2018-05-12T09:39:02.212Z,508.00
2018-05-12T09:40:02.265Z,520.00
2018-05-12T09:41:02.268Z,532.00
2018-05-12T09:42:02.295Z,544.00
2018-05-12T09:43:02.367Z,548.00
2018-05-12T09:44:02.350Z,552.00
2018-05-12T09:45:02.387Z,552.00
2018-05-12T09:46:02.406Z,556.00
2018-05-12T09:47:02.438Z,552.00
2018-05-12T09:48:02.461Z,552.00
2018-05-12T09:49:02.489Z,556.00
2018-05-12T09:50:02.519Z,560.00
2018-05-12T09:51:02.546Z,564.00
2018-05-12T09:52:02.573Z,568.00
2018-05-12T09:53:02.601Z,572.00
2018-05-12T09:54:02.629Z,572.00
2018-05-12T09:55:02.658Z,572.00
2018-05-12T09:56:02.684Z,576.00
2018-05-12T09:57:02.714Z,580.00
2018-05-12T09:58:02.740Z,592.00
2018-05-12T09:59:02.770Z,608.00
2018-05-12T10:00:02.796Z,624.00
2018-05-12T10:01:02.824Z,648.00
2018-05-12T10:02:02.866Z,676.00
2018-05-12T10:03:02.880Z,700.00
2018-05-12T10:04:02.907Z,720.00
2018-05-12T10:05:02.937Z,732.00
2018-05-12T10:06:02.963Z,732.00
2018-05-12T10:07:02.994Z,716.00
2018-05-12T10:08:03.019Z,700.00
2018-05-12T10:09:03.046Z,676.00
2018-05-12T10:10:03.076Z,644.00
2018-05-12T10:11:03.103Z,624.00
2018-05-12T10:12:03.130Z,604.00
2018-05-12T10:13:03.159Z,588.00
2018-05-12T10:14:03.186Z,580.00
2018-05-12T10:15:03.214Z,572.00
2018-05-12T10:16:03.267Z,572.00
2018-05-12T10:17:03.269Z,568.00
2018-05-12T10:18:03.297Z,572.00
2018-05-12T10:19:03.357Z,564.00
2018-05-12T10:20:03.353Z,576.00
2018-05-12T10:21:03.381Z,580.00
2018-05-12T10:22:03.413Z,584.00
2018-05-12T10:23:03.438Z,572.00
2018-05-12T10:24:03.465Z,588.00
2018-05-12T10:25:03.492Z,584.00
2018-05-12T10:26:03.520Z,588.00
2018-05-12T10:27:03.548Z,604.00
2018-05-12T10:28:03.575Z,612.00
2018-05-12T10:29:03.604Z,616.00
2018-05-12T10:30:03.644Z,608.00
2018-05-12T10:31:03.661Z,596.00
2018-05-12T10:32:03.689Z,596.00
2018-05-12T10:33:03.749Z,596.00
2018-05-12T10:34:03.744Z,596.00
2018-05-12T10:35:03.793Z,612.00
2018-05-12T10:36:03.801Z,628.00
2018-05-12T10:37:03.827Z,648.00
2018-05-12T10:38:03.898Z,660.00
2018-05-12T10:39:03.890Z,668.00
2018-05-12T10:40:03.916Z,684.00
2018-05-12T10:41:03.939Z,712.00
2018-05-12T10:42:03.969Z,732.00
2018-05-12T10:43:03.996Z,740.00
2018-05-12T10:44:04.022Z,764.00
2018-05-12T10:45:04.050Z,784.00
2018-05-12T10:46:04.078Z,792.00
2018-05-12T10:47:04.110Z,800.00
2018-05-12T10:48:04.133Z,812.00
2018-05-12T10:49:04.189Z,796.00
2018-05-12T10:50:04.192Z,808.00
2018-05-12T10:51:04.218Z,808.00
2018-05-12T10:52:04.248Z,812.00
2018-05-12T10:53:04.274Z,812.00
2018-05-12T10:54:04.301Z,804.00
2018-05-12T10:55:04.331Z,808.00
2018-05-12T10:56:04.360Z,804.00
2018-05-12T10:57:04.390Z,804.00
2018-05-12T10:58:04.419Z,788.00
2018-05-12T10:59:04.441Z,776.00
2018-05-12T11:00:04.469Z,756.00
2018-05-12T11:01:04.497Z,744.00
2018-05-12T11:02:04.525Z,740.00
2018-05-12T11:03:04.553Z,720.00
2018-05-12T11:04:04.582Z,700.00
2018-05-12T11:05:04.609Z,696.00
2018-05-12T11:06:04.638Z,696.00
2018-05-12T11:07:04.665Z,696.00
2018-05-12T11:08:04.699Z,688.00
2018-05-12T11:09:04.726Z,684.00
2018-05-12T11:10:04.748Z,680.00
2018-05-12T11:11:04.810Z,660.00
2018-05-12T11:12:04.803Z,648.00
2018-05-12T11:13:04.833Z,648.00
2018-05-12T11:14:04.859Z,640.00
2018-05-12T11:15:04.888Z,644.00
2018-05-12T11:16:04.974Z,644.00
2018-05-12T11:17:04.943Z,640.00
2018-05-12T11:18:04.974Z,648.00
2018-05-12T11:19:05.002Z,664.00
2018-05-12T11:20:05.027Z,676.00
2018-05-12T11:21:05.056Z,676.00
2018-05-12T11:22:05.083Z,676.00
2018-05-12T11:23:05.111Z,676.00
2018-05-12T11:24:05.139Z,664.00
2018-05-12T11:25:05.167Z,652.00
2018-05-12T11:26:05.194Z,640.00
2018-05-12T11:27:05.244Z,624.00
2018-05-12T11:28:05.250Z,616.00
2018-05-12T11:29:05.280Z,612.00
2018-05-12T11:30:05.307Z,608.00
2018-05-12T11:31:05.355Z,604.00
2018-05-12T11:32:05.377Z,600.00
2018-05-12T11:33:05.390Z,592.00
2018-05-12T11:34:05.420Z,588.00
2018-05-12T11:35:05.446Z,572.00
2018-05-12T11:36:05.474Z,568.00
2018-05-12T11:37:05.503Z,580.00
2018-05-12T11:38:05.531Z,592.00
2018-05-12T11:39:05.588Z,584.00
2018-05-12T11:40:05.585Z,596.00
2018-05-12T11:41:05.617Z,616.00
2018-05-12T11:42:05.644Z,636.00
2018-05-12T11:43:05.669Z,656.00
2018-05-12T11:44:05.697Z,652.00
2018-05-12T11:45:05.730Z,668.00
2018-05-12T11:46:05.753Z,696.00
2018-05-12T11:47:05.786Z,712.00
2018-05-12T11:48:05.809Z,712.00
2018-05-12T11:49:05.837Z,724.00
2018-05-12T11:50:05.904Z,728.00
2018-05-12T11:51:05.893Z,740.00
2018-05-12T11:52:05.921Z,744.00
2018-05-12T11:53:05.950Z,744.00
2018-05-12T11:54:06.040Z,732.00
2018-05-12T11:55:06.007Z,736.00
2018-05-12T11:56:06.032Z,740.00
2018-05-12T11:57:06.061Z,740.00
2018-05-12T11:58:06.089Z,720.00
2018-05-12T11:59:06.117Z,700.00
2018-05-12T12:00:06.144Z,648.00
2018-05-12T12:01:06.173Z,600.00
2018-05-12T12:02:06.234Z,568.00
2018-05-12T12:03:06.229Z,548.00
2018-05-12T12:04:06.257Z,516.00
2018-05-12T12:05:06.303Z,500.00
2018-05-12T12:06:06.313Z,488.00
2018-05-12T12:07:06.341Z,500.00
2018-05-12T12:08:06.370Z,508.00
2018-05-12T12:09:06.398Z,508.00
2018-05-12T12:10:06.424Z,512.00
2018-05-12T12:11:06.476Z,532.00
2018-05-12T12:12:06.480Z,544.00
2018-05-12T12:13:06.510Z,560.00
2018-05-12T12:14:06.537Z,584.00
2018-05-12T12:15:06.565Z,600.00
2018-05-12T12:16:06.592Z,628.00
2018-05-12T12:17:06.620Z,624.00
2018-05-12T12:18:06.648Z,640.00
2018-05-12T12:19:06.677Z,636.00
2018-05-12T12:20:06.706Z,640.00
2018-05-12T12:21:06.733Z,648.00
2018-05-12T12:22:06.760Z,636.00
2018-05-12T12:23:06.789Z,612.00
2018-05-12T12:24:06.816Z,584.00
2018-05-12T12:25:06.845Z,552.00
2018-05-12T12:26:06.872Z,528.00
2018-05-12T12:27:06.899Z,492.00
2018-05-12T12:28:06.926Z,476.00
2018-05-12T12:29:06.978Z,484.00
2018-05-12T12:30:06.984Z,496.00
2018-05-12T12:31:07.012Z,500.00
2018-05-12T12:32:07.040Z,496.00